createdAt,value
2016-08-03T00:00:36.648Z,65.50
2016-08-03T00:01:19.630Z,65.52
2016-08-03T00:02:23.484Z,65.48
2016-08-03T00:03:19.847Z,65.49
2016-08-03T00:04:26.030Z,65.48
2016-08-03T00:05:36.327Z,65.51
2016-08-03T00:06:26.199Z,65.51
2016-08-03T00:07:17.020Z,65.50
2016-08-03T00:08:25.474Z,65.47
2016-08-03T00:09:35.152Z,65.53
2016-08-03T00:10:33.019Z,65.52
2016-08-03T00:11:14.143Z,65.52
2016-08-03T00:12:15.332Z,65.53
2016-08-03T00:13:29.887Z,65.54
2016-08-03T00:14:28.631Z,65.51
2016-08-03T00:15:39.218Z,65.53
2016-08-03T00:16:35.476Z,65.57
2016-08-03T00:17:29.412Z,65.53
2016-08-03T00:18:37.682Z,65.51
2016-08-03T00:19:37.748Z,65.53
2016-08-03T00:20:19.395Z,65.52
2016-08-03T00:21:36.776Z,65.53
2016-08-03T00:22:38.389Z,65.53
2016-08-03T00:23:23.660Z,65.55
2016-08-03T00:24:23.093Z,65.56
2016-08-03T00:25:13.731Z,65.58
2016-08-03T00:26:26.111Z,65.58
2016-08-03T00:27:47.243Z,65.59
2016-08-03T00:29:20.186Z,65.63
2016-08-03T00:30:40.997Z,65.61
2016-08-03T00:31:12.703Z,65.60
2016-08-03T00:32:13.070Z,65.60
2016-08-03T00:33:38.805Z,64.58
2016-08-03T00:34:44.719Z,64.43
2016-08-03T00:35:15.687Z,64.23
2016-08-03T00:36:15.664Z,64.22
2016-08-03T00:37:30.294Z,65.20
2016-08-03T00:38:45.661Z,65.39
2016-08-03T00:39:21.330Z,65.48
2016-08-03T00:40:15.180Z,65.53
2016-08-03T00:41:32.897Z,65.56
2016-08-03T00:42:34.806Z,65.55
2016-08-03T00:44:35.574Z,64.57
2016-08-03T00:45:33.404Z,64.50
2016-08-03T00:46:38.369Z,64.58
2016-08-03T00:47:26.378Z,65.26
2016-08-03T00:48:35.323Z,65.44
2016-08-03T00:49:14.581Z,65.56
2016-08-03T00:50:24.779Z,65.60
2016-08-03T00:51:39.311Z,65.62
2016-08-03T00:52:37.689Z,65.65
2016-08-03T00:53:32.015Z,65.67
2016-08-03T00:54:39.017Z,65.69
2016-08-03T00:55:13.476Z,65.71
2016-08-03T00:56:39.855Z,65.74
2016-08-03T00:57:13.873Z,65.73
2016-08-03T00:59:15.251Z,65.75
2016-08-03T01:00:31.677Z,65.78
2016-08-03T01:01:41.133Z,65.79
2016-08-03T01:02:41.399Z,65.77
2016-08-03T01:03:38.918Z,65.78
2016-08-03T01:04:37.279Z,65.82
2016-08-03T01:05:35.564Z,65.82
2016-08-03T01:06:29.567Z,65.85
2016-08-03T01:07:27.361Z,65.82
2016-08-03T01:08:18.403Z,65.84
2016-08-03T01:09:35.846Z,65.82
2016-08-03T01:10:35.838Z,65.85
2016-08-03T01:11:36.893Z,65.89
2016-08-03T01:12:35.091Z,65.88
2016-08-03T01:13:43.120Z,65.87
2016-08-03T01:14:39.319Z,65.90
2016-08-03T01:15:39.656Z,65.91
2016-08-03T01:16:14.505Z,65.89
2016-08-03T01:17:44.483Z,65.89
2016-08-03T01:18:38.893Z,65.92
2016-08-03T01:19:45.536Z,65.89
2016-08-03T01:20:39.933Z,65.94
2016-08-03T01:21:48.235Z,65.92
2016-08-03T01:22:38.397Z,65.93
2016-08-03T01:23:21.257Z,65.91
2016-08-03T01:24:12.323Z,65.91
2016-08-03T01:25:27.643Z,65.93
2016-08-03T01:26:32.129Z,65.95
2016-08-03T01:27:11.808Z,64.89
2016-08-03T01:28:38.365Z,65.01
2016-08-03T01:29:34.371Z,65.62
2016-08-03T01:30:26.176Z,65.76
2016-08-03T01:31:18.969Z,65.84
2016-08-03T01:32:32.750Z,65.84
2016-08-03T01:33:38.173Z,65.92
2016-08-03T01:34:27.635Z,65.90
2016-08-03T01:35:20.399Z,65.96
2016-08-03T01:36:36.288Z,65.90
2016-08-03T01:37:31.069Z,65.94
2016-08-03T01:38:31.578Z,65.95
2016-08-03T01:39:12.068Z,65.95
2016-08-03T01:40:14.857Z,65.96
2016-08-03T01:41:20.117Z,65.97
2016-08-03T01:42:31.285Z,65.92
2016-08-03T01:43:12.674Z,65.94
2016-08-03T01:44:15.734Z,65.90
2016-08-03T01:45:14.015Z,65.94
2016-08-03T01:46:25.375Z,65.98
2016-08-03T01:47:26.214Z,65.98
2016-08-03T01:48:29.446Z,64.89
2016-08-03T01:49:31.297Z,64.64
2016-08-03T01:50:15.772Z,64.59
2016-08-03T01:51:15.647Z,64.51
2016-08-03T01:52:44.933Z,64.50
2016-08-03T01:53:35.667Z,64.50
2016-08-03T01:54:12.097Z,64.50
2016-08-03T01:55:41.712Z,64.55
2016-08-03T01:56:13.893Z,65.48
2016-08-03T01:57:32.965Z,65.81
2016-08-03T01:58:43.897Z,65.84
2016-08-03T01:59:34.466Z,65.95
2016-08-03T02:00:32.824Z,65.96
2016-08-03T02:01:38.910Z,65.96
2016-08-03T02:02:21.990Z,66.00
2016-08-03T02:03:20.907Z,66.01
2016-08-03T02:04:37.385Z,66.03
2016-08-03T02:05:34.445Z,66.03
2016-08-03T02:06:31.850Z,66.03
2016-08-03T02:07:17.782Z,65.99
2016-08-03T02:08:14.656Z,66.03
2016-08-03T02:09:37.149Z,66.02
2016-08-03T02:10:34.303Z,66.02
2016-08-03T02:11:14.196Z,66.04
2016-08-03T02:12:47.249Z,66.01
2016-08-03T02:13:31.150Z,66.03
2016-08-03T02:14:21.881Z,66.00
2016-08-03T02:15:17.309Z,66.03
2016-08-03T02:16:17.625Z,66.00
2016-08-03T02:17:39.049Z,65.99
2016-08-03T02:18:19.012Z,66.02
2016-08-03T02:19:14.080Z,66.01
2016-08-03T02:20:15.466Z,66.02
2016-08-03T02:21:23.580Z,65.96
2016-08-03T02:22:30.942Z,65.96
2016-08-03T02:23:24.319Z,65.96
2016-08-03T02:24:13.228Z,66.02
2016-08-03T02:25:15.262Z,66.02
2016-08-03T02:26:37.675Z,66.02
2016-08-03T02:27:31.513Z,66.08
2016-08-03T02:28:41.241Z,66.06
2016-08-03T02:29:30.100Z,66.01
2016-08-03T02:30:37.867Z,66.04
2016-08-03T02:31:39.778Z,66.04
2016-08-03T02:32:36.594Z,66.06
2016-08-03T02:33:20.189Z,66.07
2016-08-03T02:34:31.605Z,66.11
2016-08-03T02:35:15.499Z,66.11
2016-08-03T02:36:14.211Z,66.12
2016-08-03T02:37:37.924Z,66.14
2016-08-03T02:38:36.218Z,66.14
2016-08-03T02:39:35.543Z,66.16
2016-08-03T02:40:15.209Z,66.16
2016-08-03T02:41:43.537Z,66.16
2016-08-03T02:42:27.513Z,66.20
2016-08-03T02:43:14.091Z,66.19
2016-08-03T02:44:37.900Z,66.23
2016-08-03T02:45:44.788Z,66.24
2016-08-03T02:46:36.805Z,66.22
2016-08-03T02:47:39.054Z,66.21
2016-08-03T02:48:36.010Z,66.24
2016-08-03T02:49:27.988Z,66.22
2016-08-03T02:50:12.808Z,66.23
2016-08-03T02:51:39.586Z,66.23
2016-08-03T02:52:37.017Z,66.26
2016-08-03T02:53:32.435Z,66.28
2016-08-03T02:54:36.523Z,66.28
2016-08-03T02:55:32.279Z,66.21
2016-08-03T02:56:29.933Z,66.25
2016-08-03T02:57:54.608Z,66.26
2016-08-03T02:58:35.532Z,66.24
2016-08-03T02:59:36.737Z,66.27
2016-08-03T03:00:28.334Z,66.24
2016-08-03T03:01:12.311Z,66.39
2016-08-03T03:02:38.326Z,65.20
2016-08-03T03:03:13.456Z,64.97
2016-08-03T03:04:38.707Z,64.89
2016-08-03T03:05:37.720Z,64.83
2016-08-03T03:06:12.630Z,64.75
2016-08-03T03:07:36.518Z,64.98
2016-08-03T03:08:34.269Z,65.74
2016-08-03T03:09:27.845Z,65.98
2016-08-03T03:10:13.372Z,65.94
2016-08-03T03:11:33.325Z,65.09
2016-08-03T03:12:32.137Z,64.89
2016-08-03T03:13:38.480Z,64.82
2016-08-03T03:14:35.004Z,64.80
2016-08-03T03:15:37.395Z,64.75
2016-08-03T03:16:39.446Z,64.76
2016-08-03T03:17:34.215Z,65.74
2016-08-03T03:18:35.827Z,65.98
2016-08-03T03:19:32.564Z,66.10
2016-08-03T03:20:39.608Z,66.13
2016-08-03T03:21:26.483Z,66.19
2016-08-03T03:22:43.475Z,66.22
2016-08-03T03:23:42.414Z,66.22
2016-08-03T03:24:45.154Z,66.23
2016-08-03T03:25:19.593Z,66.28
2016-08-03T03:26:55.944Z,66.25
2016-08-03T03:27:38.748Z,66.29
2016-08-03T03:28:25.785Z,66.24
2016-08-03T03:29:34.436Z,66.26
2016-08-03T03:30:26.680Z,66.23
2016-08-03T03:31:44.484Z,66.25
2016-08-03T03:32:36.074Z,66.23
2016-08-03T03:33:22.584Z,66.27
2016-08-03T03:34:37.062Z,66.28
2016-08-03T03:35:42.040Z,66.28
2016-08-03T03:36:42.492Z,66.30
2016-08-03T03:37:40.322Z,66.32
2016-08-03T03:38:45.152Z,66.32
2016-08-03T03:39:27.515Z,66.31
2016-08-03T03:40:35.316Z,66.30
2016-08-03T03:41:13.641Z,66.31
2016-08-03T03:42:27.934Z,66.30
2016-08-03T03:43:43.258Z,66.30
2016-08-03T03:45:38.334Z,66.35
2016-08-03T03:46:37.726Z,66.36
2016-08-03T03:47:33.127Z,66.35
2016-08-03T03:48:31.313Z,66.35
2016-08-03T03:49:33.903Z,66.30
2016-08-03T03:50:31.140Z,66.37
2016-08-03T03:51:14.078Z,66.34
2016-08-03T03:52:38.196Z,66.35
2016-08-03T03:53:41.325Z,66.33
2016-08-03T03:54:27.343Z,66.38
2016-08-03T03:55:37.381Z,66.38
2016-08-03T03:56:14.184Z,66.33
2016-08-03T03:57:35.396Z,66.31
2016-08-03T03:58:30.128Z,66.38
2016-08-03T03:59:14.712Z,66.35
2016-08-03T04:00:39.120Z,66.37
2016-08-03T04:01:38.807Z,66.38
2016-08-03T04:02:33.006Z,66.36
2016-08-03T04:03:35.611Z,66.40
2016-08-03T04:04:35.556Z,66.38
2016-08-03T04:05:32.073Z,66.40
2016-08-03T04:06:21.710Z,66.36
2016-08-03T04:07:32.811Z,66.36
2016-08-03T04:08:19.541Z,66.29
2016-08-03T04:09:41.871Z,66.33
2016-08-03T04:10:30.546Z,66.38
2016-08-03T04:11:34.683Z,66.38
2016-08-03T04:12:39.084Z,66.37
2016-08-03T04:13:40.194Z,66.35
2016-08-03T04:15:30.217Z,66.33
2016-08-03T04:16:23.462Z,66.34
2016-08-03T04:17:42.843Z,66.31
2016-08-03T04:18:30.692Z,66.35
2016-08-03T04:19:14.851Z,66.29
2016-08-03T04:20:41.488Z,66.34
2016-08-03T04:21:36.184Z,66.35
2016-08-03T04:22:35.101Z,66.32
2016-08-03T04:23:34.646Z,66.31
2016-08-03T04:24:22.749Z,66.30
2016-08-03T04:25:17.944Z,66.28
2016-08-03T04:26:39.817Z,66.30
2016-08-03T04:27:32.326Z,66.33
2016-08-03T04:28:16.489Z,66.35
2016-08-03T04:30:39.367Z,66.33
2016-08-03T04:31:24.989Z,65.29
2016-08-03T04:32:31.321Z,65.03
2016-08-03T04:33:28.013Z,64.90
2016-08-03T04:34:40.860Z,64.85
2016-08-03T04:35:21.089Z,64.79
2016-08-03T04:36:34.717Z,64.80
2016-08-03T04:37:34.278Z,64.92
2016-08-03T04:38:26.292Z,65.78
2016-08-03T04:39:32.809Z,66.01
2016-08-03T04:40:38.788Z,66.11
2016-08-03T04:41:27.026Z,66.20
2016-08-03T04:42:31.398Z,66.21
2016-08-03T04:43:37.939Z,66.19
2016-08-03T04:44:50.912Z,66.19
2016-08-03T04:45:20.177Z,66.22
2016-08-03T04:46:37.470Z,66.21
2016-08-03T04:47:38.917Z,66.24
2016-08-03T04:48:37.166Z,66.24
2016-08-03T04:49:25.402Z,66.26
2016-08-03T04:50:31.604Z,66.29
2016-08-03T04:51:24.406Z,66.24
2016-08-03T04:52:37.608Z,66.22
2016-08-03T04:53:38.166Z,66.20
2016-08-03T04:54:34.949Z,66.27
2016-08-03T04:55:32.767Z,66.22
2016-08-03T04:56:27.580Z,66.17
2016-08-03T04:57:14.391Z,66.22
2016-08-03T04:58:21.878Z,66.25
2016-08-03T04:59:17.143Z,66.23
2016-08-03T05:00:13.404Z,66.31
2016-08-03T05:01:28.080Z,66.24
2016-08-03T05:02:37.514Z,66.21
2016-08-03T05:03:29.779Z,66.28
2016-08-03T05:04:32.874Z,66.22
2016-08-03T05:05:42.329Z,66.22
2016-08-03T05:06:43.946Z,66.30
2016-08-03T05:07:33.673Z,66.21
2016-08-03T05:08:14.600Z,66.21
2016-08-03T05:09:21.910Z,66.22
2016-08-03T05:10:40.619Z,66.21
2016-08-03T05:11:25.879Z,66.24
2016-08-03T05:12:37.371Z,66.23
2016-08-03T05:13:21.471Z,66.18
2016-08-03T05:14:21.605Z,66.23
2016-08-03T05:15:44.217Z,66.20
2016-08-03T05:16:36.749Z,66.21
2016-08-03T05:17:14.434Z,66.24
2016-08-03T05:18:13.389Z,66.19
2016-08-03T05:19:14.754Z,66.24
2016-08-03T05:20:38.859Z,66.23
2016-08-03T05:21:39.444Z,66.30
2016-08-03T05:22:16.223Z,66.18
2016-08-03T05:23:14.976Z,66.19
2016-08-03T05:24:25.056Z,66.25
2016-08-03T05:25:30.473Z,66.18
2016-08-03T05:26:23.852Z,66.21
2016-08-03T05:27:29.680Z,66.24
2016-08-03T05:28:35.420Z,66.21
2016-08-03T05:29:25.309Z,66.24
2016-08-03T05:30:23.086Z,66.23
2016-08-03T05:31:20.891Z,66.20
2016-08-03T05:32:21.552Z,66.22
2016-08-03T05:33:35.453Z,66.21
2016-08-03T05:34:31.141Z,66.18
2016-08-03T05:35:19.850Z,66.22
2016-08-03T05:36:33.609Z,66.24
2016-08-03T05:37:15.164Z,66.29
2016-08-03T05:38:23.696Z,66.25
2016-08-03T05:39:27.197Z,66.18
2016-08-03T05:40:34.089Z,66.21
2016-08-03T05:41:13.081Z,66.15
2016-08-03T05:42:22.267Z,66.22
2016-08-03T05:43:24.361Z,66.18
2016-08-03T05:44:34.523Z,66.23
2016-08-03T05:45:24.981Z,66.18
2016-08-03T05:46:43.369Z,66.22
2016-08-03T05:47:16.437Z,66.20
2016-08-03T05:48:28.733Z,66.24
2016-08-03T05:49:32.918Z,66.34
2016-08-03T05:50:32.075Z,66.22
2016-08-03T05:51:35.393Z,65.23
2016-08-03T05:52:33.492Z,64.92
2016-08-03T05:53:35.701Z,64.92
2016-08-03T05:54:40.206Z,64.85
2016-08-03T05:55:31.343Z,64.78
2016-08-03T05:56:42.170Z,64.75
2016-08-03T05:57:40.301Z,64.85
2016-08-03T05:58:34.238Z,64.74
2016-08-03T05:59:34.128Z,64.84
2016-08-03T06:00:42.951Z,65.74
2016-08-03T06:01:58.628Z,66.02
2016-08-03T06:02:16.662Z,66.13
2016-08-03T06:03:21.425Z,66.17
2016-08-03T06:04:37.742Z,66.25
2016-08-03T06:05:43.743Z,66.20
2016-08-03T06:06:38.300Z,66.28
2016-08-03T06:07:43.132Z,66.43
2016-08-03T06:08:34.775Z,66.32
2016-08-03T06:09:40.397Z,66.41
2016-08-03T06:10:29.979Z,66.42
2016-08-03T06:11:22.702Z,66.68
2016-08-03T06:12:39.254Z,66.75
2016-08-03T06:13:13.417Z,66.83
2016-08-03T06:14:38.971Z,66.90
2016-08-03T06:15:37.696Z,66.49
2016-08-03T06:16:34.830Z,65.82
2016-08-03T06:17:33.994Z,65.78
2016-08-03T06:18:25.908Z,65.50
2016-08-03T06:19:38.282Z,65.33
2016-08-03T06:20:34.214Z,65.68
2016-08-03T06:21:14.134Z,66.56
2016-08-03T06:22:14.604Z,66.72
2016-08-03T06:23:19.730Z,66.89
2016-08-03T06:24:26.497Z,67.00
2016-08-03T06:25:42.988Z,67.25
2016-08-03T06:26:25.849Z,67.19
2016-08-03T06:27:43.959Z,66.48
2016-08-03T06:28:37.700Z,67.05
2016-08-03T06:29:36.265Z,67.30
2016-08-03T06:30:36.986Z,67.21
2016-08-03T06:31:27.090Z,67.25
2016-08-03T06:32:20.603Z,67.25
2016-08-03T06:33:25.810Z,67.45
2016-08-03T06:34:19.697Z,67.46
2016-08-03T06:35:36.038Z,67.33
2016-08-03T06:36:35.573Z,67.48
2016-08-03T06:37:13.426Z,67.39
2016-08-03T06:38:35.793Z,67.43
2016-08-03T06:39:36.064Z,67.59
2016-08-03T06:40:34.155Z,67.67
2016-08-03T06:41:36.052Z,67.69
2016-08-03T06:42:29.645Z,68.29
2016-08-03T06:43:33.159Z,67.29
2016-08-03T06:44:32.862Z,68.62
2016-08-03T06:45:43.349Z,67.58
2016-08-03T06:46:36.355Z,67.63
2016-08-03T06:47:26.503Z,68.28
2016-08-03T06:48:30.361Z,68.48
2016-08-03T06:49:16.931Z,68.44
2016-08-03T06:50:31.892Z,68.52
2016-08-03T06:51:13.206Z,68.37
2016-08-03T06:52:42.219Z,68.55
2016-08-03T06:53:35.551Z,68.58
2016-08-03T06:54:37.776Z,68.72
2016-08-03T06:55:41.512Z,68.51
2016-08-03T06:56:39.040Z,68.57
2016-08-03T06:57:37.850Z,68.44
2016-08-03T06:58:34.110Z,68.64
2016-08-03T06:59:17.256Z,68.64
2016-08-03T07:00:35.333Z,68.73
2016-08-03T07:01:42.362Z,68.69
2016-08-03T07:02:14.144Z,68.77
2016-08-03T07:03:38.525Z,68.78
2016-08-03T07:04:43.147Z,68.59
2016-08-03T07:05:38.992Z,68.59
2016-08-03T07:06:36.481Z,68.46
2016-08-03T07:07:34.771Z,68.55
2016-08-03T07:08:27.860Z,68.58
2016-08-03T07:09:31.317Z,68.51
2016-08-03T07:10:22.362Z,68.45
2016-08-03T07:11:34.523Z,68.53
2016-08-03T07:12:25.724Z,68.55
2016-08-03T07:13:31.083Z,68.46
2016-08-03T07:14:36.599Z,67.36
2016-08-03T07:15:44.824Z,67.18
2016-08-03T07:16:38.541Z,67.43
2016-08-03T07:17:21.692Z,68.02
2016-08-03T07:18:36.244Z,68.10
2016-08-03T07:19:13.234Z,68.19
2016-08-03T07:20:25.272Z,68.26
2016-08-03T07:21:15.473Z,68.23
2016-08-03T07:22:26.627Z,68.27
2016-08-03T07:23:25.566Z,68.19
2016-08-03T07:24:42.060Z,68.17
2016-08-03T07:25:36.970Z,68.15
2016-08-03T07:26:33.660Z,68.17
2016-08-03T07:27:24.908Z,68.17
2016-08-03T07:28:39.044Z,68.13
2016-08-03T07:29:36.353Z,67.99
2016-08-03T07:31:41.514Z,68.03
2016-08-03T07:32:14.078Z,67.96
2016-08-03T07:33:37.586Z,67.88
2016-08-03T07:34:30.002Z,67.90
2016-08-03T07:35:18.708Z,67.87
2016-08-03T07:36:14.831Z,67.88
2016-08-03T07:37:32.228Z,67.85
2016-08-03T07:38:34.426Z,67.87
2016-08-03T07:39:31.679Z,67.75
2016-08-03T07:40:36.720Z,67.79
2016-08-03T07:41:22.524Z,67.80
2016-08-03T07:42:12.757Z,67.80
2016-08-03T07:43:13.284Z,67.79
2016-08-03T07:44:15.389Z,67.73
2016-08-03T07:46:32.202Z,67.69
2016-08-03T07:47:42.808Z,67.67
2016-08-03T07:48:20.079Z,67.60
2016-08-03T07:49:37.920Z,67.66
2016-08-03T07:50:24.616Z,67.57
2016-08-03T07:51:39.837Z,67.54
2016-08-03T07:52:34.432Z,67.54
2016-08-03T07:53:25.968Z,67.54
2016-08-03T07:54:25.993Z,67.49
2016-08-03T07:55:30.146Z,67.49
2016-08-03T07:56:30.197Z,67.41
2016-08-03T07:57:15.971Z,67.35
2016-08-03T07:58:18.376Z,67.37
2016-08-03T07:59:24.575Z,67.29
2016-08-03T08:01:26.054Z,67.31
2016-08-03T08:02:22.545Z,67.26
2016-08-03T08:03:22.142Z,67.09
2016-08-03T08:04:35.764Z,66.12
2016-08-03T08:05:23.873Z,66.12
2016-08-03T08:06:43.130Z,66.74
2016-08-03T08:07:43.992Z,66.96
2016-08-03T08:08:13.856Z,66.94
2016-08-03T08:09:32.670Z,67.03
2016-08-03T08:10:38.857Z,67.00
2016-08-03T08:11:31.219Z,66.97
2016-08-03T08:12:13.173Z,66.95
2016-08-03T08:13:36.745Z,66.97
2016-08-03T08:14:20.353Z,66.88
2016-08-03T08:15:16.709Z,66.97
2016-08-03T08:16:15.726Z,66.88
2016-08-03T08:17:29.719Z,66.86
2016-08-03T08:18:13.356Z,66.93
2016-08-03T08:19:37.974Z,66.82
2016-08-03T08:20:13.284Z,66.82
2016-08-03T08:21:35.726Z,66.84
2016-08-03T08:22:45.713Z,66.81
2016-08-03T08:23:39.696Z,66.77
2016-08-03T08:24:39.135Z,66.73
2016-08-03T08:25:20.630Z,66.76
2016-08-03T08:26:22.209Z,66.72
2016-08-03T08:27:40.934Z,66.68
2016-08-03T08:28:35.370Z,66.66
2016-08-03T08:29:34.293Z,66.65
2016-08-03T08:30:19.905Z,66.64
2016-08-03T08:31:37.180Z,66.58
2016-08-03T08:32:39.895Z,66.55
2016-08-03T08:33:34.565Z,66.60
2016-08-03T08:34:39.377Z,66.56
2016-08-03T08:35:38.149Z,66.54
2016-08-03T08:36:27.771Z,66.53
2016-08-03T08:37:30.035Z,66.58
2016-08-03T08:38:21.805Z,66.54
2016-08-03T08:39:32.089Z,66.51
2016-08-03T08:40:40.024Z,66.53
2016-08-03T08:41:34.951Z,66.52
2016-08-03T08:42:25.306Z,66.51
2016-08-03T08:43:32.053Z,66.52
2016-08-03T08:44:34.980Z,66.48
2016-08-03T08:45:26.908Z,66.46
2016-08-03T08:46:44.529Z,66.45
2016-08-03T08:47:29.149Z,66.43
2016-08-03T08:48:41.146Z,66.42
2016-08-03T08:49:42.244Z,66.37
2016-08-03T08:50:38.150Z,66.40
2016-08-03T08:51:12.890Z,66.34
2016-08-03T08:52:38.270Z,66.36
2016-08-03T08:53:42.248Z,66.32
2016-08-03T08:54:14.711Z,66.32
2016-08-03T08:55:32.711Z,66.31
2016-08-03T08:56:34.700Z,66.26
2016-08-03T08:57:38.457Z,66.28
2016-08-03T08:58:12.541Z,66.25
2016-08-03T08:59:14.166Z,66.23
2016-08-03T09:00:35.124Z,66.22
2016-08-03T09:01:34.717Z,66.19
2016-08-03T09:02:34.982Z,66.16
2016-08-03T09:03:20.232Z,66.16
2016-08-03T09:04:16.560Z,66.15
2016-08-03T09:05:27.354Z,66.14
2016-08-03T09:06:42.923Z,66.12
2016-08-03T09:07:36.255Z,66.11
2016-08-03T09:08:36.495Z,66.12
2016-08-03T09:09:39.057Z,66.10
2016-08-03T09:10:12.977Z,66.08
2016-08-03T09:11:13.018Z,65.92
2016-08-03T09:12:34.693Z,64.98
2016-08-03T09:13:36.625Z,65.08
2016-08-03T09:14:14.429Z,65.72
2016-08-03T09:15:37.047Z,65.85
2016-08-03T09:16:44.239Z,65.91
2016-08-03T09:17:32.067Z,65.95
2016-08-03T09:18:35.513Z,65.93
2016-08-03T09:19:16.749Z,65.95
2016-08-03T09:20:12.968Z,65.95
2016-08-03T09:21:35.031Z,65.95
2016-08-03T09:22:43.156Z,65.94
2016-08-03T09:23:30.457Z,65.96
2016-08-03T09:24:25.942Z,65.96
2016-08-03T09:25:18.013Z,65.95
2016-08-03T09:26:20.313Z,65.93
2016-08-03T09:27:35.122Z,65.93
2016-08-03T09:28:14.234Z,65.91
2016-08-03T09:29:20.836Z,65.90
2016-08-03T09:30:23.950Z,65.90
2016-08-03T09:31:22.818Z,65.87
2016-08-03T09:32:45.803Z,65.87
2016-08-03T09:33:43.337Z,65.87
2016-08-03T09:34:13.740Z,65.85
2016-08-03T09:35:21.749Z,65.89
2016-08-03T09:36:14.313Z,65.83
2016-08-03T09:37:15.510Z,65.83
2016-08-03T09:38:35.782Z,65.82
2016-08-03T09:39:29.795Z,65.80
2016-08-03T09:40:39.385Z,65.82
2016-08-03T09:41:16.987Z,65.78
2016-08-03T09:42:44.213Z,65.77
2016-08-03T09:43:29.880Z,65.77
2016-08-03T09:44:39.360Z,65.77
2016-08-03T09:45:31.331Z,65.74
2016-08-03T09:46:38.944Z,65.72
2016-08-03T09:47:36.369Z,65.71
2016-08-03T09:48:38.267Z,65.71
2016-08-03T09:49:38.383Z,65.71
2016-08-03T09:50:32.782Z,65.70
2016-08-03T09:51:27.047Z,65.70
2016-08-03T09:52:39.211Z,65.69
2016-08-03T09:53:39.474Z,65.68
2016-08-03T09:54:38.801Z,65.67
2016-08-03T09:55:16.308Z,65.68
2016-08-03T09:56:36.786Z,65.66
2016-08-03T09:57:36.335Z,65.65
2016-08-03T09:58:31.369Z,65.64
2016-08-03T09:59:37.877Z,65.63
2016-08-03T10:00:24.083Z,65.62
2016-08-03T10:01:38.369Z,65.59
2016-08-03T10:02:12.645Z,65.59
2016-08-03T10:03:21.190Z,65.59
2016-08-03T10:04:12.513Z,65.59
2016-08-03T10:05:31.612Z,65.58
2016-08-03T10:06:28.586Z,65.57
2016-08-03T10:07:38.402Z,65.58
2016-08-03T10:08:33.676Z,65.55
2016-08-03T10:09:54.450Z,65.55
2016-08-03T10:10:28.879Z,65.52
2016-08-03T10:11:19.362Z,65.53
2016-08-03T10:12:15.009Z,65.50
2016-08-03T10:13:54.885Z,65.52
2016-08-03T10:14:38.375Z,65.49
2016-08-03T10:15:39.011Z,65.33
2016-08-03T10:16:35.086Z,64.46
2016-08-03T10:17:36.585Z,64.20
2016-08-03T10:18:36.329Z,64.19
2016-08-03T10:19:36.582Z,65.05
2016-08-03T10:20:22.637Z,65.23
2016-08-03T10:21:40.299Z,65.30
2016-08-03T10:22:35.125Z,65.32
2016-08-03T10:23:35.128Z,65.34
2016-08-03T10:24:42.154Z,65.35
2016-08-03T10:25:20.385Z,65.36
2016-08-03T10:26:33.235Z,65.37
2016-08-03T10:27:37.362Z,65.35
2016-08-03T10:28:34.592Z,65.36
2016-08-03T10:29:38.323Z,65.35
2016-08-03T10:30:38.531Z,65.34
2016-08-03T10:32:41.562Z,65.37
2016-08-03T10:33:43.079Z,65.34
2016-08-03T10:34:37.962Z,65.34
2016-08-03T10:35:40.097Z,65.36
2016-08-03T10:36:36.382Z,65.36
2016-08-03T10:37:43.728Z,65.38
2016-08-03T10:38:32.361Z,65.34
2016-08-03T10:39:31.717Z,65.36
2016-08-03T10:40:40.100Z,65.34
2016-08-03T10:41:33.444Z,65.35
2016-08-03T10:42:41.387Z,65.33
2016-08-03T10:43:14.289Z,65.33
2016-08-03T10:44:30.951Z,65.33
2016-08-03T10:45:26.027Z,65.35
2016-08-03T10:47:37.136Z,65.33
2016-08-03T10:48:26.809Z,65.31
2016-08-03T10:49:11.674Z,65.32
2016-08-03T10:50:13.434Z,64.28
2016-08-03T10:51:26.351Z,64.03
2016-08-03T10:52:34.926Z,63.91
2016-08-03T10:53:14.194Z,64.10
2016-08-03T10:54:37.898Z,64.84
2016-08-03T10:55:41.616Z,65.02
2016-08-03T10:56:13.387Z,65.09
2016-08-03T10:57:13.177Z,65.14
2016-08-03T10:58:38.818Z,65.15
2016-08-03T10:59:36.427Z,65.15
2016-08-03T11:00:20.899Z,65.16
2016-08-03T11:01:41.561Z,65.17
2016-08-03T11:02:33.038Z,65.16
2016-08-03T11:03:36.848Z,65.16
2016-08-03T11:04:13.823Z,65.18
2016-08-03T11:05:47.428Z,65.17
2016-08-03T11:06:34.139Z,65.19
2016-08-03T11:07:39.869Z,65.17
2016-08-03T11:08:17.424Z,65.18
2016-08-03T11:09:33.456Z,65.16
2016-08-03T11:10:43.694Z,65.13
2016-08-03T11:11:37.390Z,65.13
2016-08-03T11:12:25.876Z,65.13
2016-08-03T11:13:38.219Z,65.13
2016-08-03T11:14:31.021Z,64.95
2016-08-03T11:15:54.719Z,64.08
2016-08-03T11:16:14.412Z,63.89
2016-08-03T11:17:24.460Z,63.93
2016-08-03T11:18:44.472Z,64.77
2016-08-03T11:19:33.745Z,64.93
2016-08-03T11:20:14.413Z,65.00
2016-08-03T11:21:36.449Z,65.04
2016-08-03T11:22:32.509Z,65.07
2016-08-03T11:23:21.384Z,65.12
2016-08-03T11:24:36.285Z,65.11
2016-08-03T11:25:23.242Z,65.09
2016-08-03T11:26:30.559Z,65.11
2016-08-03T11:27:38.743Z,65.08
2016-08-03T11:28:36.139Z,65.06
2016-08-03T11:29:35.208Z,65.04
2016-08-03T11:30:35.571Z,65.04
2016-08-03T11:31:36.687Z,65.06
2016-08-03T11:32:13.654Z,65.05
2016-08-03T11:33:30.101Z,65.02
2016-08-03T11:34:37.838Z,65.01
2016-08-03T11:35:35.206Z,64.99
2016-08-03T11:36:29.573Z,65.00
2016-08-03T11:37:15.088Z,64.99
2016-08-03T11:38:35.467Z,64.97
2016-08-03T11:39:23.015Z,64.99
2016-08-03T11:40:39.149Z,64.97
2016-08-03T11:41:38.268Z,64.96
2016-08-03T11:42:28.318Z,64.95
2016-08-03T11:43:35.938Z,64.95
2016-08-03T11:44:37.359Z,64.95
2016-08-03T11:45:35.002Z,64.92
2016-08-03T11:46:37.571Z,64.93
2016-08-03T11:47:37.599Z,64.91
2016-08-03T11:48:13.742Z,64.93
2016-08-03T11:49:15.123Z,64.90
2016-08-03T11:50:13.381Z,64.89
2016-08-03T11:51:39.132Z,64.91
2016-08-03T11:52:32.760Z,64.89
2016-08-03T11:53:34.302Z,64.87
2016-08-03T11:54:23.800Z,64.85
2016-08-03T11:55:22.138Z,64.83
2016-08-03T11:56:41.527Z,64.11
2016-08-03T11:57:34.949Z,64.64
2016-08-03T11:58:35.229Z,64.74
2016-08-03T11:59:21.186Z,64.75
2016-08-03T12:00:39.478Z,64.75
2016-08-03T12:01:38.696Z,64.78
2016-08-03T12:02:29.137Z,64.80
2016-08-03T12:03:29.003Z,64.77
2016-08-03T12:04:43.033Z,64.78
2016-08-03T12:05:37.549Z,64.76
2016-08-03T12:06:14.166Z,64.78
2016-08-03T12:07:39.576Z,64.74
2016-08-03T12:08:44.598Z,64.72
2016-08-03T12:09:14.074Z,64.76
2016-08-03T12:10:22.386Z,64.73
2016-08-03T12:11:31.610Z,64.72
2016-08-03T12:12:48.876Z,64.71
2016-08-03T12:13:37.682Z,64.69
2016-08-03T12:14:36.239Z,64.69
2016-08-03T12:15:12.533Z,64.67
2016-08-03T12:16:32.791Z,64.67
2016-08-03T12:17:31.789Z,64.64
2016-08-03T12:18:39.192Z,64.61
2016-08-03T12:19:38.758Z,64.65
2016-08-03T12:20:42.480Z,64.63
2016-08-03T12:21:38.678Z,64.64
2016-08-03T12:22:38.213Z,64.63
2016-08-03T12:23:44.021Z,64.59
2016-08-03T12:24:38.479Z,64.59
2016-08-03T12:25:13.726Z,64.56
2016-08-03T12:26:36.857Z,64.57
2016-08-03T12:27:26.434Z,64.46
2016-08-03T12:28:28.295Z,64.54
2016-08-03T12:29:24.746Z,64.56
2016-08-03T12:30:15.835Z,64.53
2016-08-03T12:31:35.419Z,64.53
2016-08-03T12:32:18.138Z,64.50
2016-08-03T12:33:20.687Z,64.50
2016-08-03T12:34:19.082Z,64.49
2016-08-03T12:35:41.773Z,64.50
2016-08-03T12:36:27.378Z,64.48
2016-08-03T12:37:40.565Z,64.47
2016-08-03T12:38:13.548Z,64.47
2016-08-03T12:39:14.956Z,64.46
2016-08-03T12:40:12.212Z,64.46
2016-08-03T12:41:38.494Z,64.44
2016-08-03T12:42:19.052Z,64.43
2016-08-03T12:43:27.115Z,64.43
2016-08-03T12:44:29.378Z,64.42
2016-08-03T12:45:33.632Z,63.39
2016-08-03T12:46:15.468Z,64.18
2016-08-03T12:47:18.018Z,64.29
2016-08-03T12:48:54.152Z,64.33
2016-08-03T12:49:32.746Z,64.36
2016-08-03T12:50:30.977Z,64.37
2016-08-03T12:51:37.349Z,64.35
2016-08-03T12:52:26.625Z,64.34
2016-08-03T12:53:23.277Z,64.33
2016-08-03T12:54:13.772Z,64.34
2016-08-03T12:55:26.916Z,64.31
2016-08-03T12:56:18.121Z,64.30
2016-08-03T12:57:22.691Z,64.31
2016-08-03T12:58:32.222Z,64.29
2016-08-03T12:59:20.630Z,64.29
2016-08-03T13:00:35.138Z,64.27
2016-08-03T13:01:28.820Z,64.26
2016-08-03T13:02:32.209Z,63.26
2016-08-03T13:03:33.741Z,63.02